Terminal Aerodrome Forecast
Issued by NWS

Home | Current Version | Previous Version | Text Only | Print | Product List | Glossary On
Versions: 1 2 3 4 5 6 7 8 9 10 11 12 13 14 15
494
FTUS46 KPDT 290533
TAFDLS
TAF
KDLS 290533Z 2906/3006 VRB05KT P6SM -RA OVC045
     FM291000 VRB05KT 5SM -RA BR OVC030
     FM292100 31010KT P6SM -SHRA OVC040=

USA.gov is the U.S. government's official web portal to all federal, state and local government web resources and services.